KNGP

Airport

Corpus Christi, Texas, USA
METAR KNGP 200523Z AUTO 13012KT 10SM -RA FEW009 BKN027 OVC065 26/26 A2979 RMK AO2 P0001 T02610256 $
Observed Flight Rules
Jun-20 @ 05:23 UTC (17 minutes ago) Marginal Visual Flight Rules
Wind Visibility Clouds Conditions
130° at 12 knots 10 miles
  • Few at 900' AGL
  • Broken at 2,700' AGL
  • Overcast at 6,500' AGL
  • Light Rain
Temperatures Readings Precipitation
Current 26°C / 79°F
Dewpoint 26°C / 79°F
Humidity 100%
Altimeter 29.79" Hg
Pressure 1009 hPa
Elevation 6
Current Rain 0.01
METAR KNGP 200523Z AUTO 13012KT 10SM -RA FEW009 BKN027 OVC065 26/26 A2979 RMK AO2 P0001 T02610256 $
Observed Flight Rules
Jun-20 @ 05:23 UTC
(17 minutes ago)
MVFR
Wind Visibility
130° at 12 knots 10 miles
Clouds
  • Few at 900' AGL
  • Broken at 2,700' AGL
  • Overcast at 6,500' AGL
Conditions
  • Light Rain
Temperature Dewpoint
26°C / 79°F 26°C / 79°F
Humidity Altimeter Pressure
100% 29.79" Hg 1009 hPa
Current Rain
0.01